<?xml version="1.0" encoding="UTF-8" standalone="no" ?>
<gpx xmlns="http://www.topografix.com/GPX/1/1" xmlns:xsi="http://www.w3.org/2001/XMLSchema-instance" xsi:schemaLocation="http://www.topografix.com/GPX/1/1 http://www.topografix.com/GPX/1/1/gpx.xsd" version="1.1" creator="VisuGPX - https://www.visugpx.com">
  <metadata>
    <name>combe marion et coillu bordel </name>
    <desc><![CDATA[ski de la combe marion vers le coillu aller et retour]]></desc>
  </metadata>
  <wpt lat="46.17959" lon="5.91672">
    <ele>494.96</ele>
    <name><![CDATA[001]]></name>
  </wpt>
  <wpt lat="45.96373" lon="6.77729">
    <ele>1768.94</ele>
    <name><![CDATA[002]]></name>
  </wpt>
  <wpt lat="45.92289" lon="6.48432">
    <ele>1547.84</ele>
    <name><![CDATA[003]]></name>
  </wpt>
  <wpt lat="45.92679" lon="6.51817">
    <ele>2077.52</ele>
    <name><![CDATA[004]]></name>
  </wpt>
  <wpt lat="46.17998" lon="5.91662">
    <ele>426.23</ele>
    <name><![CDATA[005]]></name>
  </wpt>
  <wpt lat="46.17981" lon="5.91659">
    <ele>599.98</ele>
    <name><![CDATA[006]]></name>
  </wpt>
  <wpt lat="46.25476" lon="5.92722">
    <ele>1635.8</ele>
    <name><![CDATA[007]]></name>
  </wpt>
  <wpt lat="46.25699" lon="5.92978">
    <ele>1441.61</ele>
    <name><![CDATA[008]]></name>
  </wpt>
  <trk>
    <name><![CDATA[ACTIVE LOG: 23 JAN 2010 15:08]]></name>
    <trkseg>
      <trkpt lat="45.87298" lon="6.46317">
        <ele>1543.05</ele>
        <time>2010-01-23T14:08:43Z</time>
      </trkpt>
      <trkpt lat="45.87298" lon="6.46317">
        <ele>465.42</ele>
        <time>2010-01-23T14:08:45Z</time>
      </trkpt>
      <trkpt lat="45.87298" lon="6.46317">
        <ele>465.42</ele>
        <time>2010-01-23T14:08:46Z</time>
      </trkpt>
      <trkpt lat="45.87298" lon="6.46317">
        <ele>464.45</ele>
        <time>2010-01-23T14:08:55Z</time>
      </trkpt>
      <trkpt lat="45.87298" lon="6.46317">
        <ele>467.82</ele>
        <time>2010-01-23T14:08:59Z</time>
      </trkpt>
      <trkpt lat="45.87298" lon="6.46317">
        <ele>463.49</ele>
        <time>2010-01-23T14:09:02Z</time>
      </trkpt>
      <trkpt lat="45.87298" lon="6.46317">
        <ele>466.38</ele>
        <time>2010-01-23T14:09:07Z</time>
      </trkpt>
      <trkpt lat="45.87298" lon="6.46317">
        <ele>462.05</ele>
        <time>2010-01-23T14:09:15Z</time>
      </trkpt>
      <trkpt lat="45.87298" lon="6.46317">
        <ele>462.05</ele>
        <time>2010-01-23T14:09:16Z</time>
      </trkpt>
      <trkpt lat="45.87298" lon="6.46317">
        <ele>464.93</ele>
        <time>2010-01-23T14:09:21Z</time>
      </trkpt>
      <trkpt lat="45.87298" lon="6.46317">
        <ele>468.3</ele>
        <time>2010-01-23T14:09:23Z</time>
      </trkpt>
      <trkpt lat="45.87298" lon="6.46317">
        <ele>463.01</ele>
        <time>2010-01-23T14:09:24Z</time>
      </trkpt>
      <trkpt lat="45.87298" lon="6.46317">
        <ele>467.34</ele>
        <time>2010-01-23T14:09:25Z</time>
      </trkpt>
      <trkpt lat="45.87298" lon="6.46317">
        <ele>463.97</ele>
        <time>2010-01-23T14:09:27Z</time>
      </trkpt>
      <trkpt lat="45.87298" lon="6.46317">
        <ele>465.42</ele>
        <time>2010-01-23T14:09:28Z</time>
      </trkpt>
      <trkpt lat="45.87298" lon="6.46317">
        <ele>462.53</ele>
        <time>2010-01-23T14:09:32Z</time>
      </trkpt>
      <trkpt lat="45.87298" lon="6.46317">
        <ele>467.82</ele>
        <time>2010-01-23T14:09:33Z</time>
      </trkpt>
      <trkpt lat="45.87298" lon="6.46317">
        <ele>463.01</ele>
        <time>2010-01-23T14:09:37Z</time>
      </trkpt>
      <trkpt lat="45.87298" lon="6.46317">
        <ele>465.42</ele>
        <time>2010-01-23T14:09:40Z</time>
      </trkpt>
      <trkpt lat="45.87298" lon="6.46317">
        <ele>463.97</ele>
        <time>2010-01-23T14:09:41Z</time>
      </trkpt>
      <trkpt lat="45.87298" lon="6.46317">
        <ele>466.38</ele>
        <time>2010-01-23T14:09:42Z</time>
      </trkpt>
    </trkseg>
  </trk>
</gpx>